Time;durP1;ratioP1;P1;durP2;ratioP2;P2;SDS_P1;SDS_P2;PMS_P1;PMS_P2;Temp;Humidity;BMP_temperature;BMP_pressure;BME280_temperature;BME280_humidity;BME280_pressure;Samples;Min_cycle;Max_cycle;Signal;HPM_P1;HPM_P2
2023/05/31 00:00:38;;;;;;;2.88;1.50;;;15.30;86.90;;;;;;10478581;28;20697;-68
2023/05/31 00:05:39;;;;;;;3.65;1.60;;;15.20;86.80;;;;;;10483783;28;20446;-67
2023/05/31 00:10:40;;;;;;;2.72;1.48;;;15.20;86.80;;;;;;10481986;28;20488;-67
2023/05/31 00:15:40;;;;;;;4.43;1.42;;;15.10;86.80;;;;;;10485034;28;20026;-67
2023/05/31 00:20:41;;;;;;;2.67;1.20;;;15.20;86.80;;;;;;10482303;28;20024;-68
2023/05/31 00:25:41;;;;;;;3.67;1.50;;;15.20;86.80;;;;;;10474201;28;20515;-67
2023/05/31 00:30:42;;;;;;;2.58;1.33;;;15.10;86.80;;;;;;10473836;28;20529;-67
2023/05/31 00:35:43;;;;;;;2.25;1.40;;;15.10;86.70;;;;;;10476087;28;20020;-67
2023/05/31 00:40:44;;;;;;;2.40;1.60;;;14.40;86.30;;;;;;10484143;28;20028;-68
2023/05/31 00:45:45;;;;;;;3.28;1.70;;;15.20;86.80;;;;;;10483554;28;20095;-68
2023/05/31 00:50:47;;;;;;;3.25;1.38;;;15.10;86.70;;;;;;10471140;28;20036;-67
2023/05/31 00:55:49;;;;;;;4.07;1.55;;;15.00;86.60;;;;;;10478851;28;20025;-68
2023/05/31 01:00:49;;;;;;;3.42;1.65;;;15.10;86.70;;;;;;10479494;28;20507;-68
2023/05/31 01:05:51;;;;;;;3.92;1.90;;;15.00;86.60;;;;;;10487512;28;20025;-68
2023/05/31 01:10:53;;;;;;;2.70;1.45;;;15.00;86.70;;;;;;10478595;28;20154;-67
2023/05/31 01:16:01;;;;;;;2.63;1.40;;;15.00;86.60;;;;;;10484741;28;20040;-67
2023/05/31 01:21:05;;;;;;;2.90;1.40;;;15.00;86.60;;;;;;10477430;28;20032;-68
2023/05/31 01:26:25;;;;;;;3.33;1.48;;;14.90;86.60;;;;;;10490370;28;20035;-67
2023/05/31 01:31:28;;;;;;;3.75;1.60;;;14.90;86.60;;;;;;10482454;28;20029;-67
2023/05/31 01:36:29;;;;;;;2.88;1.40;;;14.90;86.50;;;;;;10491832;28;20024;-68
2023/05/31 01:41:33;;;;;;;3.63;1.58;;;14.90;86.50;;;;;;10485402;28;20020;-67
2023/05/31 01:46:37;;;;;;;2.58;1.60;;;14.80;86.50;;;;;;10482892;28;20469;-67
2023/05/31 01:51:39;;;;;;;2.67;1.42;;;14.90;86.50;;;;;;10492432;28;20408;-67
2023/05/31 01:56:42;;;;;;;2.15;1.50;;;14.80;86.40;;;;;;10477821;28;20027;-66
2023/05/31 02:01:43;;;;;;;2.45;1.55;;;14.80;86.50;;;;;;10484177;28;20518;-67
2023/05/31 02:06:43;;;;;;;2.75;1.67;;;14.80;86.50;;;;;;10484512;28;20032;-68
2023/05/31 02:11:44;;;;;;;2.55;1.45;;;14.90;86.50;;;;;;10479482;28;20036;-67
2023/05/31 02:16:45;;;;;;;5.32;1.52;;;14.80;86.50;;;;;;10480495;28;20040;-68
2023/05/31 02:21:45;;;;;;;2.42;1.55;;;14.80;86.40;;;;;;10480712;28;20040;-67
2023/05/31 02:26:46;;;;;;;3.90;1.77;;;14.70;86.40;;;;;;10492830;28;20025;-68
2023/05/31 02:31:47;;;;;;;4.10;1.75;;;14.70;86.40;;;;;;10482977;28;20036;-67
2023/05/31 02:36:48;;;;;;;5.95;1.83;;;14.70;86.40;;;;;;10483190;28;20056;-67
2023/05/31 02:41:49;;;;;;;3.50;1.55;;;14.70;86.40;;;;;;10488030;28;20081;-67
2023/05/31 02:46:49;;;;;;;4.32;1.90;;;14.70;86.30;;;;;;10472762;28;20025;-67
2023/05/31 02:51:50;;;;;;;3.00;1.73;;;14.60;86.30;;;;;;10474960;28;20447;-67
2023/05/31 02:56:51;;;;;;;3.42;1.60;;;14.70;86.40;;;;;;10484494;28;20510;-67
2023/05/31 03:01:51;;;;;;;4.45;1.80;;;14.60;86.30;;;;;;10473510;28;20028;-69
2023/05/31 03:06:52;;;;;;;4.18;2.03;;;14.60;86.30;;;;;;10470277;28;20028;-70
2023/05/31 03:11:53;;;;;;;2.90;1.83;;;14.50;86.30;;;;;;10484057;28;20102;-71
2023/05/31 03:16:55;;;;;;;3.42;1.92;;;14.50;86.20;;;;;;10479894;28;20056;-70
2023/05/31 03:21:55;;;;;;;3.85;1.73;;;14.50;86.30;;;;;;10476243;28;20430;-70
2023/05/31 03:26:56;;;;;;;4.85;2.00;;;14.50;86.30;;;;;;10474612;28;20035;-70
2023/05/31 03:31:57;;;;;;;3.70;1.73;;;14.50;86.20;;;;;;10479799;28;20365;-69
2023/05/31 03:36:57;;;;;;;2.78;1.80;;;14.50;86.20;;;;;;10474826;28;20404;-70
2023/05/31 03:42:00;;;;;;;3.55;1.70;;;14.50;86.20;;;;;;10481348;28;20411;-69
2023/05/31 03:47:00;;;;;;;2.95;1.70;;;14.40;86.20;;;;;;10475025;28;20040;-69
2023/05/31 03:52:01;;;;;;;3.10;1.38;;;14.50;86.20;;;;;;10482085;28;20106;-70
2023/05/31 03:57:02;;;;;;;3.42;1.80;;;14.40;86.10;;;;;;10487324;28;20028;-69
2023/05/31 04:02:03;;;;;;;4.55;2.03;;;14.40;86.10;;;;;;10485213;28;20024;-70
2023/05/31 04:07:04;;;;;;;3.70;2.08;;;14.40;86.70;;;;;;10484272;28;20036;-70
2023/05/31 04:12:05;;;;;;;6.40;2.15;;;14.30;86.10;;;;;;10479714;28;20503;-69
2023/05/31 04:17:06;;;;;;;3.33;1.88;;;14.40;86.10;;;;;;10476359;28;20369;-69
2023/05/31 04:22:06;;;;;;;3.97;1.73;;;14.40;86.10;;;;;;10486999;28;20036;-69
2023/05/31 04:27:07;;;;;;;4.18;1.70;;;14.40;86.10;;;;;;10484252;28;20503;-70
2023/05/31 04:32:08;;;;;;;3.17;1.60;;;14.40;86.10;;;;;;10492695;28;20024;-69
2023/05/31 04:37:09;;;;;;;3.25;1.90;;;14.40;86.10;;;;;;10497761;28;20028;-69
2023/05/31 04:42:11;;;;;;;3.50;1.90;;;14.40;86.10;;;;;;10478122;28;20110;-69
2023/05/31 04:47:12;;;;;;;2.42;1.60;;;14.30;86.10;;;;;;10481952;28;20036;-72
2023/05/31 04:52:12;;;;;;;5.65;2.30;;;14.40;86.10;;;;;;10504198;28;20790;-69
2023/05/31 04:57:13;;;;;;;3.47;1.98;;;14.40;86.20;;;;;;10477707;28;20509;-71
2023/05/31 05:02:14;;;;;;;4.38;2.22;;;14.30;86.10;;;;;;10483120;28;20401;-68
2023/05/31 05:07:16;;;;;;;4.18;1.98;;;14.40;86.30;;;;;;10481642;28;20024;-69
2023/05/31 05:12:16;;;;;;;3.60;1.80;;;14.40;86.30;;;;;;10478439;28;20064;-69
2023/05/31 05:17:17;;;;;;;2.97;1.92;;;14.40;86.30;;;;;;10474749;28;20586;-69
2023/05/31 05:22:18;;;;;;;3.53;1.83;;;14.40;86.30;;;;;;10487488;28;20492;-69
2023/05/31 05:27:21;;;;;;;4.55;1.98;;;14.40;86.30;;;;;;10474672;28;20033;-69
2023/05/31 05:32:22;;;;;;;4.65;2.17;;;14.30;86.30;;;;;;10475565;28;20493;-69
2023/05/31 05:37:22;;;;;;;3.13;1.80;;;14.40;86.30;;;;;;10479612;28;20043;-69
2023/05/31 05:42:23;;;;;;;3.63;2.00;;;14.40;86.30;;;;;;10482433;28;20085;-69
2023/05/31 05:47:24;;;;;;;4.40;2.03;;;14.40;86.40;;;;;;10487092;28;20032;-69
2023/05/31 05:52:25;;;;;;;5.57;2.03;;;14.40;86.40;;;;;;10476477;28;20020;-69
2023/05/31 05:57:25;;;;;;;2.47;1.60;;;14.40;86.40;;;;;;10487118;28;20119;-68
2023/05/31 06:02:26;;;;;;;4.47;1.92;;;14.40;86.50;;;;;;10464625;28;20424;-69
2023/05/31 06:07:26;;;;;;;3.90;1.90;;;14.40;86.50;;;;;;10479169;28;20025;-69
2023/05/31 06:12:27;;;;;;;4.57;1.92;;;14.40;86.50;;;;;;10486810;28;20037;-69
2023/05/31 06:17:27;;;;;;;7.03;2.78;;;14.40;87.00;;;;;;10483266;28;20045;-69
2023/05/31 06:22:28;;;;;;;2.75;1.50;;;14.40;86.50;;;;;;10473498;28;20070;-69
2023/05/31 06:27:29;;;;;;;3.88;1.90;;;14.50;86.70;;;;;;10485354;28;20024;-69
2023/05/31 06:32:30;;;;;;;3.58;2.03;;;14.50;86.70;;;;;;10471159;28;20111;-69
2023/05/31 06:37:31;;;;;;;3.03;1.98;;;14.50;86.80;;;;;;10473539;28;20024;-68
2023/05/31 06:42:33;;;;;;;3.58;1.90;;;14.50;86.80;;;;;;10473237;28;20411;-71
2023/05/31 06:47:34;;;;;;;3.20;1.95;;;14.50;86.90;;;;;;10471986;28;20020;-70
2023/05/31 06:52:34;;;;;;;5.03;2.15;;;14.60;87.00;;;;;;10479559;28;20045;-69
2023/05/31 06:57:35;;;;;;;3.40;1.80;;;14.60;87.60;;;;;;10477347;28;20653;-69
2023/05/31 07:02:35;;;;;;;3.72;2.17;;;14.60;87.10;;;;;;10478395;28;20073;-68
2023/05/31 07:07:36;;;;;;;3.10;1.40;;;14.60;87.10;;;;;;10470735;28;20278;-69
2023/05/31 07:12:37;;;;;;;3.20;1.65;;;14.70;87.10;;;;;;10473408;28;20393;-70
2023/05/31 07:17:37;;;;;;;3.85;1.85;;;14.70;87.20;;;;;;10478077;28;20067;-68
2023/05/31 07:22:38;;;;;;;4.50;2.05;;;14.80;87.30;;;;;;10475952;28;20036;-69
2023/05/31 07:27:40;;;;;;;2.78;1.92;;;14.80;87.20;;;;;;10478736;28;20043;-70
2023/05/31 07:32:41;;;;;;;4.93;3.08;;;14.90;87.30;;;;;;10473214;28;20516;-69
2023/05/31 07:37:41;;;;;;;5.75;2.10;;;14.80;87.20;;;;;;10479483;28;20017;-70
2023/05/31 07:42:43;;;;;;;5.35;2.35;;;14.90;87.40;;;;;;10469841;28;20104;-69
2023/05/31 07:47:44;;;;;;;3.13;1.77;;;14.90;87.30;;;;;;10482589;28;20017;-69
2023/05/31 07:52:49;;;;;;;4.43;1.80;;;15.00;87.50;;;;;;10467552;28;20392;-69
2023/05/31 07:57:53;;;;;;;4.55;1.98;;;15.00;87.60;;;;;;10479062;28;20025;-70
2023/05/31 08:02:54;;;;;;;9.85;3.28;;;15.10;87.70;;;;;;10484169;28;20070;-71
2023/05/31 08:07:55;;;;;;;10.48;3.90;;;15.30;90.00;;;;;;10478696;28;20453;-70
2023/05/31 08:12:55;;;;;;;7.80;3.15;;;15.60;90.20;;;;;;10485619;28;20051;-69
2023/05/31 08:17:56;;;;;;;9.98;3.28;;;15.60;89.70;;;;;;10483043;28;20035;-68
2023/05/31 08:22:58;;;;;;;7.03;3.80;;;15.70;90.00;;;;;;10490212;28;22183;-69
2023/05/31 08:27:58;;;;;;;6.68;3.45;;;16.10;89.70;;;;;;10487993;28;20029;-69
2023/05/31 08:32:59;;;;;;;9.05;3.92;;;16.00;90.00;;;;;;10486278;28;20412;-69
2023/05/31 08:38:00;;;;;;;10.77;3.45;;;16.10;89.70;;;;;;10484761;28;20500;-69
2023/05/31 08:43:10;;;;;;;10.57;3.58;;;16.10;89.30;;;;;;10492203;28;20377;-68
2023/05/31 08:48:24;;;;;;;7.65;3.55;;;16.20;89.00;;;;;;10488173;28;20145;-68
2023/05/31 08:53:27;;;;;;;8.63;4.38;;;16.30;89.30;;;;;;10484765;28;20055;-73
2023/05/31 08:58:29;;;;;;;7.20;3.50;;;16.50;89.00;;;;;;10485063;28;20024;-69
2023/05/31 09:03:32;;;;;;;9.70;3.40;;;16.60;88.80;;;;;;10483986;28;20829;-71
2023/05/31 09:08:33;;;;;;;7.15;3.38;;;16.80;88.40;;;;;;10488981;28;20031;-73
2023/05/31 09:13:34;;;;;;;7.45;3.75;;;17.00;88.40;;;;;;10477576;28;20029;-71
2023/05/31 09:18:39;;;;;;;5.82;3.00;;;17.10;88.00;;;;;;10489432;28;20412;-70
2023/05/31 09:23:52;;;;;;;8.00;3.53;;;17.30;88.10;;;;;;10485352;28;20047;-71
2023/05/31 09:28:55;;;;;;;7.22;3.13;;;17.40;87.60;;;;;;10482333;28;20480;-71
2023/05/31 09:33:55;;;;;;;8.52;3.50;;;17.50;87.70;;;;;;10481558;28;20454;-70
2023/05/31 09:39:08;;;;;;;9.75;3.58;;;17.60;87.40;;;;;;10483162;28;20078;-72
2023/05/31 09:44:09;;;;;;;7.55;3.50;;;17.70;86.80;;;;;;10481391;28;20032;-71
2023/05/31 09:49:10;;;;;;;8.43;3.63;;;17.90;86.90;;;;;;10481209;28;20012;-71
2023/05/31 09:54:16;;;;;;;8.70;4.18;;;17.90;86.80;;;;;;10484670;28;20036;-71
2023/05/31 09:59:17;;;;;;;10.18;4.35;;;18.00;86.40;;;;;;10491680;28;20028;-71
2023/05/31 10:04:19;;;;;;;5.85;3.40;;;18.10;86.40;;;;;;10485404;28;20438;-70
2023/05/31 10:09:20;;;;;;;8.35;3.65;;;18.20;86.40;;;;;;10486230;28;20127;-70
2023/05/31 10:14:38;;;;;;;13.85;4.15;;;18.40;86.20;;;;;;10477842;28;20029;-71
2023/05/31 10:19:50;;;;;;;7.75;3.72;;;18.50;86.10;;;;;;10481562;28;20504;-69
2023/05/31 10:24:55;;;;;;;8.45;3.67;;;18.50;85.80;;;;;;10477301;28;20606;-70
2023/05/31 10:30:04;;;;;;;11.63;3.90;;;18.60;86.10;;;;;;10490814;28;20021;-69
2023/05/31 10:35:06;;;;;;;8.68;3.70;;;18.70;85.80;;;;;;10479894;28;20377;-70
2023/05/31 10:40:13;;;;;;;8.98;3.42;;;18.80;85.20;;;;;;10477915;28;20036;-69
2023/05/31 10:45:35;;;;;;;8.05;3.28;;;18.80;85.30;;;;;;10476576;28;20188;-71
2023/05/31 10:50:58;;;;;;;8.80;3.72;;;19.00;85.10;;;;;;10487882;28;20464;-71
2023/05/31 10:56:19;;;;;;;10.60;3.47;;;19.20;84.30;;;;;;10479822;28;20113;-71
2023/05/31 11:01:21;;;;;;;7.88;3.40;;;19.30;83.80;;;;;;10475386;28;20024;-71
2023/05/31 11:06:32;;;;;;;9.23;3.65;;;19.40;84.30;;;;;;10473223;28;20024;-70
2023/05/31 11:11:33;;;;;;;7.78;3.58;;;19.70;84.20;;;;;;10486061;28;20110;-70
2023/05/31 11:16:53;;;;;;;5.35;2.97;;;19.70;83.80;;;;;;10483191;28;20082;-72
2023/05/31 11:21:57;;;;;;;7.35;3.58;;;19.90;83.90;;;;;;10488467;28;20025;-71
2023/05/31 11:27:02;;;;;;;9.70;3.70;;;20.00;83.50;;;;;;10472273;28;20515;-71
2023/05/31 11:32:03;;;;;;;6.38;2.97;;;20.20;83.10;;;;;;10478117;28;20487;-70
2023/05/31 11:37:04;;;;;;;13.52;2.97;;;20.20;83.00;;;;;;10475325;28;20025;-70
2023/05/31 11:42:07;;;;;;;7.40;3.47;;;20.20;82.70;;;;;;10470173;28;20040;-71
2023/05/31 11:47:10;;;;;;;5.63;3.10;;;20.30;82.40;;;;;;10474916;28;20157;-71
2023/05/31 11:52:19;;;;;;;7.32;3.42;;;20.40;82.00;;;;;;10478321;28;20120;-70
2023/05/31 11:57:20;;;;;;;8.20;3.30;;;20.50;81.80;;;;;;10485404;28;20070;-70
2023/05/31 12:02:21;;;;;;;10.85;3.03;;;20.60;81.60;;;;;;10477633;28;20106;-71
2023/05/31 12:07:22;;;;;;;4.63;2.65;;;20.60;81.10;;;;;;10473822;28;20082;-70
2023/05/31 12:12:23;;;;;;;6.65;3.10;;;20.90;81.00;;;;;;10482187;28;20361;-71
2023/05/31 12:17:23;;;;;;;5.22;2.85;;;21.10;80.80;;;;;;10478732;28;20024;-71
2023/05/31 12:22:24;;;;;;;6.15;2.90;;;21.20;80.30;;;;;;10482173;28;20017;-71
2023/05/31 12:27:27;;;;;;;8.98;3.22;;;21.30;80.20;;;;;;10476970;28;20016;-71
2023/05/31 12:32:28;;;;;;;8.77;3.70;;;21.40;80.70;;;;;;10480661;28;20545;-70
2023/05/31 12:37:42;;;;;;;7.63;3.80;;;21.50;81.80;;;;;;10482364;28;20058;-70
2023/05/31 12:42:42;;;;;;;9.88;3.70;;;21.50;81.50;;;;;;10474297;28;20024;-69
2023/05/31 12:47:43;;;;;;;8.75;3.50;;;21.60;81.60;;;;;;10486425;28;20052;-70
2023/05/31 12:52:55;;;;;;;7.20;3.67;;;21.80;81.50;;;;;;10498550;28;20427;-70
2023/05/31 12:57:56;;;;;;;6.68;3.92;;;21.80;81.10;;;;;;10483536;28;20032;-71
2023/05/31 13:02:57;;;;;;;11.07;4.38;;;21.90;81.50;;;;;;10492119;28;20028;-70
2023/05/31 13:07:57;;;;;;;9.18;3.47;;;21.90;81.30;;;;;;10486589;28;20025;-70
2023/05/31 13:12:58;;;;;;;10.10;3.92;;;22.00;81.30;;;;;;10487410;28;20032;-71
2023/05/31 13:17:58;;;;;;;10.63;4.18;;;22.00;80.80;;;;;;10493822;28;20032;-68
2023/05/31 13:23:00;;;;;;;9.48;3.78;;;21.90;80.80;;;;;;10476879;28;20029;-70
2023/05/31 13:28:01;;;;;;;11.23;3.95;;;21.90;80.20;;;;;;10483772;28;20013;-71
2023/05/31 13:33:02;;;;;;;7.57;4.10;;;22.00;80.00;;;;;;10488333;28;20488;-71
2023/05/31 13:38:03;;;;;;;8.75;3.75;;;22.00;79.40;;;;;;10488144;28;20025;-71
2023/05/31 13:43:04;;;;;;;10.40;3.67;;;22.00;79.20;;;;;;10483615;28;20033;-71
2023/05/31 13:48:05;;;;;;;10.50;4.38;;;22.10;78.90;;;;;;10477880;28;20520;-72
2023/05/31 13:53:06;;;;;;;11.05;4.35;;;22.00;78.30;;;;;;10483524;28;20082;-71
2023/05/31 13:58:07;;;;;;;10.00;3.88;;;22.00;78.00;;;;;;10482800;28;20028;-71
2023/05/31 14:03:07;;;;;;;9.63;4.20;;;22.10;78.20;;;;;;10482828;28;21067;-71
2023/05/31 14:08:08;;;;;;;13.50;4.07;;;22.30;78.00;;;;;;10486032;28;20024;-71
2023/05/31 14:13:11;;;;;;;7.90;4.18;;;22.40;77.70;;;;;;10490886;28;20316;-71
2023/05/31 14:18:11;;;;;;;6.43;3.45;;;22.30;77.50;;;;;;10480211;28;20090;-70
2023/05/31 14:23:12;;;;;;;9.02;3.53;;;22.20;77.50;;;;;;10489166;28;20070;-71
2023/05/31 14:28:12;;;;;;;9.23;3.50;;;22.20;77.60;;;;;;10498040;28;20323;-71
2023/05/31 14:33:13;;;;;;;6.07;3.60;;;22.40;77.70;;;;;;10486458;28;20120;-71
2023/05/31 14:38:13;;;;;;;7.80;3.20;;;22.50;77.40;;;;;;10476399;28;20036;-71
2023/05/31 14:43:14;;;;;;;4.32;2.90;;;22.40;77.20;;;;;;10485297;28;20025;-71
2023/05/31 14:48:15;;;;;;;7.72;2.72;;;22.50;76.90;;;;;;10479580;28;20595;-71
2023/05/31 14:53:15;;;;;;;6.97;2.80;;;22.40;76.60;;;;;;10479400;28;20082;-71
2023/05/31 14:58:16;;;;;;;5.32;2.78;;;22.30;76.50;;;;;;10478386;28;20024;-72
2023/05/31 15:03:17;;;;;;;7.40;2.58;;;22.40;76.50;;;;;;10483777;28;20025;-73
2023/05/31 15:08:17;;;;;;;6.57;2.55;;;22.30;76.30;;;;;;10478977;28;20017;-72
2023/05/31 15:13:18;;;;;;;7.15;3.08;;;22.40;76.50;;;;;;10486771;28;20036;-71
2023/05/31 15:18:18;;;;;;;6.50;2.65;;;22.40;76.10;;;;;;10478551;28;20404;-71
2023/05/31 15:23:19;;;;;;;8.60;2.72;;;22.20;76.10;;;;;;10487041;28;20028;-71
2023/05/31 15:28:20;;;;;;;7.25;3.13;;;22.20;76.10;;;;;;10480916;28;20393;-71
2023/05/31 15:33:20;;;;;;;4.07;2.70;;;22.00;76.00;;;;;;10467453;28;20031;-72
2023/05/31 15:38:21;;;;;;;5.97;2.72;;;22.10;76.00;;;;;;10471599;28;20460;-72
2023/05/31 15:43:26;;;;;;;5.75;2.40;;;22.10;75.90;;;;;;10477343;28;20035;-73
2023/05/31 15:48:26;;;;;;;6.03;2.47;;;21.80;75.00;;;;;;10482569;28;20484;-72
2023/05/31 15:53:27;;;;;;;5.35;3.17;;;21.60;76.00;;;;;;10470757;28;20025;-72
2023/05/31 15:58:28;;;;;;;4.60;2.40;;;21.40;75.90;;;;;;10473587;28;20056;-71
2023/05/31 16:03:30;;;;;;;3.80;2.30;;;21.40;76.10;;;;;;10472567;28;20488;-74
2023/05/31 16:08:30;;;;;;;3.58;2.05;;;21.10;76.20;;;;;;10475338;28;20035;-73
2023/05/31 16:13:31;;;;;;;4.40;2.17;;;21.00;76.50;;;;;;10470161;28;20043;-73
2023/05/31 16:18:31;;;;;;;5.32;2.35;;;20.90;76.70;;;;;;10479217;28;20565;-73
2023/05/31 16:23:32;;;;;;;7.57;2.90;;;20.80;77.40;;;;;;10481222;28;20032;-73
2023/05/31 16:28:33;;;;;;;6.10;2.47;;;20.70;77.30;;;;;;10488300;28;20111;-71
2023/05/31 16:33:33;;;;;;;6.82;2.80;;;20.60;77.60;;;;;;10484822;28;20024;-71
2023/05/31 16:38:34;;;;;;;5.68;2.90;;;20.40;77.90;;;;;;10482408;28;20024;-71
2023/05/31 16:43:35;;;;;;;6.40;2.92;;;20.20;78.50;;;;;;10475707;28;20051;-72
2023/05/31 16:48:36;;;;;;;10.55;4.45;;;20.10;79.60;;;;;;10479363;28;20116;-71
2023/05/31 16:53:37;;;;;;;6.65;3.03;;;19.90;80.10;;;;;;10488471;28;20032;-74
2023/05/31 16:58:37;;;;;;;6.57;2.85;;;19.70;80.70;;;;;;10479828;28;20120;-73
2023/05/31 17:03:38;;;;;;;6.47;2.72;;;19.60;81.30;;;;;;10469556;28;20036;-68
2023/05/31 17:08:39;;;;;;;8.38;2.58;;;19.70;81.10;;;;;;10473674;28;20024;-68
2023/05/31 17:13:39;;;;;;;4.32;2.33;;;19.90;80.90;;;;;;10475446;28;20035;-67
2023/05/31 17:18:40;;;;;;;8.00;2.60;;;20.10;80.80;;;;;;10473777;28;20020;-69
2023/05/31 17:23:41;;;;;;;5.88;2.70;;;20.30;80.90;;;;;;10470732;28;20380;-67
2023/05/31 17:28:45;;;;;;;5.10;2.70;;;20.30;81.30;;;;;;10479511;28;20021;-70
2023/05/31 17:33:45;;;;;;;4.57;2.75;;;20.30;81.00;;;;;;10473044;28;20020;-70
2023/05/31 17:38:46;;;;;;;7.47;3.30;;;19.60;81.60;;;;;;10476349;28;20043;-71
2023/05/31 17:43:46;;;;;;;12.93;3.25;;;19.00;82.60;;;;;;10479316;28;20526;-66
2023/05/31 17:48:47;;;;;;;5.22;2.78;;;18.60;83.40;;;;;;10469346;28;20507;-66
2023/05/31 17:53:48;;;;;;;8.57;3.30;;;18.80;83.50;;;;;;10473505;28;20021;-65
2023/05/31 17:58:48;;;;;;;5.13;3.05;;;19.10;83.10;;;;;;10477415;28;20405;-66
2023/05/31 18:03:50;;;;;;;6.22;2.55;;;19.30;82.70;;;;;;10482251;28;20033;-66
2023/05/31 18:08:51;;;;;;;7.50;2.70;;;19.50;82.50;;;;;;10478689;28;20009;-65
2023/05/31 18:13:52;;;;;;;4.50;3.35;;;19.70;82.20;;;;;;10478564;28;20503;-65
2023/05/31 18:18:53;;;;;;;7.80;2.60;;;19.80;82.20;;;;;;10470932;28;20053;-67
2023/05/31 18:23:54;;;;;;;5.93;2.50;;;19.80;82.10;;;;;;10474983;28;20103;-67
2023/05/31 18:28:54;;;;;;;7.53;2.92;;;19.90;82.10;;;;;;10475772;28;20086;-66
2023/05/31 18:33:56;;;;;;;2.92;2.10;;;19.90;82.20;;;;;;10478248;28;20059;-66
2023/05/31 18:38:57;;;;;;;8.52;2.60;;;19.90;82.20;;;;;;10483857;28;20077;-66
2023/05/31 18:43:57;;;;;;;5.65;2.97;;;19.90;82.20;;;;;;10482210;28;20078;-67
2023/05/31 18:48:58;;;;;;;3.92;2.63;;;19.90;82.30;;;;;;10479687;28;20971;-66
2023/05/31 18:53:59;;;;;;;3.90;2.58;;;19.90;82.40;;;;;;10478636;28;20724;-67
2023/05/31 18:59:00;;;;;;;4.90;2.45;;;19.90;82.50;;;;;;10480630;28;20033;-67
2023/05/31 19:04:01;;;;;;;5.63;3.00;;;19.80;82.50;;;;;;10480499;28;20024;-66
2023/05/31 19:09:04;;;;;;;4.35;3.17;;;19.80;82.50;;;;;;10476866;28;20116;-66
2023/05/31 19:14:05;;;;;;;5.28;2.67;;;19.70;82.60;;;;;;10481431;28;20027;-66
2023/05/31 19:19:06;;;;;;;4.55;2.83;;;19.70;82.70;;;;;;10476041;28;20025;-67
2023/05/31 19:24:07;;;;;;;4.15;2.50;;;19.70;82.70;;;;;;10481736;28;20519;-67
2023/05/31 19:29:10;;;;;;;5.00;2.88;;;19.60;82.80;;;;;;10478377;28;20119;-66
2023/05/31 19:34:10;;;;;;;3.63;2.80;;;19.60;82.80;;;;;;10478707;28;20029;-66
2023/05/31 19:39:17;;;;;;;7.88;2.90;;;19.50;82.80;;;;;;10475465;28;20033;-66
2023/05/31 19:44:18;;;;;;;4.85;3.08;;;19.50;82.80;;;;;;10481317;28;20020;-66
2023/05/31 19:49:19;;;;;;;5.22;2.90;;;19.40;82.90;;;;;;10479058;28;20025;-66
2023/05/31 19:54:21;;;;;;;5.65;2.60;;;19.30;82.90;;;;;;10482565;28;20020;-66
2023/05/31 19:59:22;;;;;;;4.65;3.33;;;19.30;82.90;;;;;;10488387;28;20156;-66
2023/05/31 20:04:24;;;;;;;4.85;3.40;;;19.20;82.90;;;;;;10483278;28;20673;-66
2023/05/31 20:09:25;;;;;;;5.55;3.05;;;19.20;82.90;;;;;;10479563;28;20040;-66
2023/05/31 20:14:25;;;;;;;3.88;3.20;;;19.10;82.90;;;;;;10484185;28;20035;-64
2023/05/31 20:19:26;;;;;;;4.55;2.95;;;19.10;82.90;;;;;;10480065;28;20036;-66
2023/05/31 20:24:27;;;;;;;8.15;3.53;;;19.00;82.80;;;;;;10481891;28;20134;-66
2023/05/31 20:29:28;;;;;;;5.65;3.53;;;19.00;82.80;;;;;;10479726;28;20046;-65
2023/05/31 20:34:29;;;;;;;4.65;3.00;;;18.90;82.80;;;;;;10483003;28;20035;-66
2023/05/31 20:39:29;;;;;;;6.53;3.45;;;18.90;82.70;;;;;;10479093;28;20063;-66
2023/05/31 20:44:32;;;;;;;4.03;3.20;;;18.80;82.60;;;;;;10487745;28;20271;-66
2023/05/31 20:49:33;;;;;;;6.68;3.80;;;18.80;82.60;;;;;;10478768;28;20024;-65
2023/05/31 20:54:33;;;;;;;5.00;3.33;;;18.70;82.60;;;;;;10481232;28;20016;-66
2023/05/31 20:59:35;;;;;;;6.85;3.35;;;18.80;82.60;;;;;;10478134;28;20032;-66
2023/05/31 21:04:35;;;;;;;5.93;2.80;;;18.70;82.50;;;;;;10478643;28;20035;-66
2023/05/31 21:09:36;;;;;;;5.40;3.13;;;18.70;82.50;;;;;;10481748;28;20021;-65
2023/05/31 21:14:37;;;;;;;5.63;2.90;;;18.60;82.50;;;;;;10485189;28;20030;-65
2023/05/31 21:19:37;;;;;;;5.22;2.90;;;18.50;82.40;;;;;;10478699;28;20488;-65
2023/05/31 21:24:38;;;;;;;4.82;2.80;;;18.40;82.30;;;;;;10475942;28;20094;-65
2023/05/31 21:29:39;;;;;;;4.00;2.60;;;18.40;82.30;;;;;;10483684;28;20055;-65
2023/05/31 21:34:39;;;;;;;4.25;2.60;;;18.40;82.30;;;;;;10483743;28;20036;-65
2023/05/31 21:39:40;;;;;;;6.97;2.80;;;18.40;82.30;;;;;;10485664;28;20042;-66
2023/05/31 21:44:40;;;;;;;4.93;2.70;;;18.30;82.20;;;;;;10467128;28;20031;-65
2023/05/31 21:49:41;;;;;;;6.13;2.95;;;18.30;82.30;;;;;;10471351;28;20115;-65
2023/05/31 21:54:42;;;;;;;4.15;2.67;;;18.20;82.20;;;;;;10472360;28;20031;-65
2023/05/31 21:59:42;;;;;;;4.05;2.60;;;18.20;82.20;;;;;;10474724;28;20031;-64
2023/05/31 22:04:43;;;;;;;5.50;2.90;;;18.20;82.10;;;;;;10472223;28;20392;-65
2023/05/31 22:09:44;;;;;;;4.28;2.28;;;18.10;82.10;;;;;;10474334;28;20409;-66
2023/05/31 22:14:45;;;;;;;5.35;2.30;;;18.10;82.10;;;;;;10480287;28;20031;-65
2023/05/31 22:19:45;;;;;;;5.55;2.70;;;18.10;82.10;;;;;;10480044;28;20514;-65
2023/05/31 22:24:46;;;;;;;4.65;2.67;;;18.00;82.00;;;;;;10474937;28;20040;-65
2023/05/31 22:29:47;;;;;;;3.28;2.25;;;18.10;82.10;;;;;;10484212;28;20037;-65
2023/05/31 22:34:47;;;;;;;4.18;2.67;;;18.00;82.10;;;;;;10474642;28;20032;-65
2023/05/31 22:39:48;;;;;;;6.28;2.90;;;17.90;82.00;;;;;;10479598;28;20032;-64
2023/05/31 22:44:48;;;;;;;6.32;2.67;;;17.90;82.00;;;;;;10474157;28;20484;-65
2023/05/31 22:49:49;;;;;;;6.05;2.85;;;17.90;82.00;;;;;;10474298;28;20648;-65
2023/05/31 22:54:49;;;;;;;5.88;2.63;;;17.90;82.00;;;;;;10475087;28;20122;-65
2023/05/31 22:59:50;;;;;;;6.15;2.70;;;17.80;82.00;;;;;;10479273;28;20037;-64
2023/05/31 23:04:51;;;;;;;4.45;2.50;;;17.80;82.00;;;;;;10488889;28;20028;-64
2023/05/31 23:09:52;;;;;;;4.95;2.70;;;17.80;82.10;;;;;;10474532;28;20561;-64
2023/05/31 23:14:57;;;;;;;6.53;2.65;;;17.70;82.00;;;;;;10485524;28;20089;-65
2023/05/31 23:20:04;;;;;;;4.68;2.75;;;17.70;82.10;;;;;;10476079;28;20040;-65
2023/05/31 23:25:05;;;;;;;4.43;2.92;;;17.70;82.10;;;;;;10476309;28;20024;-65
2023/05/31 23:30:13;;;;;;;4.97;2.90;;;17.60;82.00;;;;;;10487241;28;20028;-64
2023/05/31 23:35:14;;;;;;;4.10;2.80;;;17.60;82.00;;;;;;10484095;28;20111;-65
2023/05/31 23:40:15;;;;;;;5.50;2.90;;;17.60;82.10;;;;;;10478419;28;20037;-64
2023/05/31 23:45:16;;;;;;;6.22;3.15;;;17.60;82.10;;;;;;10472484;28;20408;-64
2023/05/31 23:50:17;;;;;;;5.18;2.80;;;17.50;82.10;;;;;;10480301;28;20016;-64
2023/05/31 23:55:17;;;;;;;3.38;2.38;;;17.50;82.10;;;;;;10468615;28;20040;-64
